Flight Track Log - Related Links

Times and Time Zones

All times are in EDT time to prevent confusion due to time zone crossing. See the SWA407 flight status page for this flight to view local times or setup timezone preferences in your user account.

Time Position Orientation Groundspeed Altitude Reporting Facility
EDT Latitude Longitude Course Direction KTS MPH feet Rate Location/Type
Tue 12:34:42 AM 37.6444 -122.4347 298° West 167 192 4,000  Level Oakland Center
Tue 12:35:43 AM 37.6700 -122.5003 296° West 197 227 8,700 3,787 Climbing Oakland Center
Tue 12:36:44 AM 37.6186 -122.5531 219° Southwest 273 314 11,700 3,246 Climbing Oakland Center
Tue 12:37:45 AM 37.5189 -122.5539 180° South 345 397 15,300 3,492 Climbing Oakland Center
Tue 12:38:46 AM 37.4092 -122.5583 182° South 381 438 18,800 3,443 Climbing Oakland Center
Tue 12:39:00 AM 37.2155 -122.5301 185° South  Level FlightAware Approximate
Tue 12:39:47 AM 37.2936 -122.5633 182° South 404 465 22,300  Level Oakland Center
Tue 12:40:48 AM 37.1728 -122.5672 181° South 419 482 25,700 3,174 Climbing Oakland Center
Tue 12:41:48 AM 37.0514 -122.5697 181° South 430 495 28,700 2,678 Climbing Oakland Center
Tue 12:42:49 AM 36.9275 -122.5425 170° South 461 531 31,100 2,164 Climbing Oakland Center
Tue 12:43:50 AM 36.8175 -122.4314 141° Southeast 505 581 33,100 2,262 Climbing Oakland Center
Tue 12:44:51 AM 36.7075 -122.3178 140° Southeast 515 593 35,700 2,311 Climbing Oakland Center
Tue 12:45:52 AM 36.6008 -122.2075 140° Southeast 503 579 37,800 1,918 Climbing Oakland Center
Tue 12:46:53 AM 36.4722 -122.0786 141° Southeast 498 573 39,600 1,475 Climbing Oakland Center
Tue 12:47:54 AM 36.3644 -121.9717 141° Southeast 497 572 40,800 639 Climbing Oakland Center
Tue 12:48:55 AM 36.2572 -121.8639 141° Southeast 497 572 40,900 98 Climbing Oakland Center
Tue 12:49:56 AM 36.1633 -121.7653 140° Southeast 497 572 41,000 50 Climbing Oakland Center
Tue 12:50:56 AM 36.0753 -121.6294 129° Southeast 506 582 41,000  Level Oakland Center
Tue 12:51:57 AM 35.9872 -121.4956 129° Southeast 506 582 41,000  Level Oakland Center
Tue 12:52:58 AM 35.8833 -121.3331 128° Southeast 503 579 41,000  Level Oakland Center
Tue 12:53:59 AM 35.7969 -121.2003 129° Southeast 500 575 41,000  Level Oakland Center
Tue 12:55:00 AM 35.7111 -121.0675 129° Southeast 497 572 41,000  Level Oakland Center
Tue 12:56:01 AM 35.6253 -120.9347 128° Southeast 497 572 41,000  Level Oakland Center
Tue 12:57:01 AM 35.5394 -120.8033 129° Southeast 497 572 41,000  Level Oakland Center
Tue 12:58:02 AM 35.4544 -120.6733 129° Southeast 493 567 41,000  Level Oakland Center
Tue 12:59:03 AM 35.3692 -120.5464 129° Southeast 490 564 41,000  Level Oakland Center
Tue 12:59:23 AM 35.3392 -120.4992 128° Southeast 493 567 41,000  Level Los Angeles Center
Tue 01:00:24 AM 35.2536 -120.3683 129° Southeast 491 565 41,000  Level Los Angeles Center
Tue 01:01:25 AM 35.1669 -120.2367 129° Southeast 494 568 41,000  Level Los Angeles Center
Tue 01:02:26 AM 35.0800 -120.1069 129° Southeast 492 566 41,000  Level Los Angeles Center
Tue 01:03:27 AM 34.9972 -119.9831 129° Southeast 492 566 41,000  Level Los Angeles Center
Tue 01:04:28 AM 34.8933 -119.8281 129° Southeast 492 566 41,000  Level Los Angeles Center
Tue 01:05:30 AM 34.8058 -119.7003 130° Southeast 492 566 41,000  Level Los Angeles Center
Tue 01:06:31 AM 34.7197 -119.5719 129° Southeast 492 566 41,000  Level Los Angeles Center
Tue 01:07:32 AM 34.6328 -119.4431 129° Southeast 493 567 41,000  Level Los Angeles Center
Tue 01:08:33 AM 34.5392 -119.3069 130° Southeast 492 566 41,000  Level Los Angeles Center
Tue 01:09:34 AM 34.4522 -119.1817 130° Southeast 487 560 41,000  Level Los Angeles Center
Tue 01:11:36 AM 34.2808 -118.9328 130° Southeast 483 556 41,000 -196 Level Los Angeles Center
Tue 01:12:38 AM 34.1953 -118.8081 130° Southeast 482 555 40,400 -780 Descending Los Angeles Center
Tue 01:13:39 AM 34.1100 -118.6867 130° Southeast 477 549 39,400 -1,377 Descending Los Angeles Center
Tue 01:14:40 AM 34.0256 -118.5650 130° Southeast 473 544 37,600 -1,820 Descending Los Angeles Center
Tue 01:15:41 AM 33.9397 -118.4422 130° Southeast 475 547 35,700 -1,918 Descending Los Angeles Center
Tue 01:16:42 AM 33.8489 -118.3244 133° Southeast 474 545 33,700 -1,918 Descending Los Angeles Center
Tue 01:17:43 AM 33.7578 -118.2125 134° Southeast 471 542 31,800 -2,049 Descending Los Angeles Center
Tue 01:18:45 AM 33.6650 -118.0886 132° Southeast 470 541 29,500 -2,293 Descending Los Angeles Center
Tue 01:19:46 AM 33.5781 -117.9783 133° Southeast 455 524 27,100 -2,459 Descending Los Angeles Center
Tue 01:20:47 AM 33.4933 -117.8731 134° Southeast 440 506 24,500 -2,262 Descending Los Angeles Center
Tue 01:21:48 AM 33.4114 -117.7689 133° Southeast 431 496 22,500 -2,164 Descending Los Angeles Center
Tue 01:22:49 AM 33.3319 -117.6689 134° Southeast 417 480 20,100 -2,557 Descending Los Angeles Center
Tue 01:23:50 AM 33.2394 -117.5547 134° Southeast 400 460 17,300 -2,439 Descending Los Angeles Center
Tue 01:24:52 AM 33.1489 -117.4822 146° Southeast 390 449 15,100 -1,317 Descending Los Angeles Center
Tue 01:25:53 AM 33.0694 -117.4156 145° Southeast 359 413 14,600 -2,115 Descending Los Angeles Center
Tue 01:26:54 AM 32.9900 -117.3503 145° Southeast 345 397 10,800 -2,459 Descending Los Angeles Center
Tue 01:27:55 AM 32.9111 -117.2878 146° Southeast 343 395 9,600 -1,415 Descending Los Angeles Center
Tue 01:28:57 AM 32.8500 -117.2167 136° Southeast 304 350 7,900 -1,603 Descending Southern California TRACON
Tue 01:29:51 AM 32.8000 -117.1500 132° Southeast 302 348 6,500 -1,400 Descending Southern California TRACON
Tue 01:30:57 AM 32.7667 -117.0500 112° Southeast 278 320 5,100 -750 Descending Southern California TRACON
Tue 01:31:51 AM 32.7667 -116.9833 90° East 239 275 5,000 -53 Descending Southern California TRACON
Tue 01:32:51 AM 32.7500 -116.9167 107° East 218 251 5,000 -250 Level Southern California TRACON
Tue 01:33:51 AM 32.6833 -116.9167 180° South 215 247 4,500 -600 Descending Southern California TRACON
Tue 01:34:51 AM 32.6833 -116.9833 270° West 192 221 3,800 -950 Descending Southern California TRACON
Tue 01:35:51 AM 32.7000 -117.0333 292° West 182 209 2,600 -1,050 Descending Southern California TRACON
Tue 01:36:51 AM 32.7000 -117.0833 270° West 141 162 1,700 -750 Descending Southern California TRACON
Tue 01:37:51 AM 32.7167 -117.1167 301° West 117 135 1,100 -600 Descending Southern California TRACON
Tue 01:38:51 AM 32.7333 -117.1500 301° West 119 137 500 -545 Descending Southern California TRACON
Tue 01:39:08 AM 32.7278 -117.1614 240° Southwest 119 137 400 -353 Descending Los Angeles Center
Tue 01:41:00 AM 32.7333 -117.1833 253° West  Level FlightAware Approximate

Login

Don't have an account? Register now (free) for customized features, flight alerts, and more!